sensor_id;sensor_type;location;lat;lon;timestamp;P1;durP1;ratioP1;P2;durP2;ratioP2
22026;SDS011;11177;50.966;10.070;2023-05-09T00:00:45;7.10;;;3.10;;
22026;SDS011;11177;50.966;10.070;2023-05-09T00:03:12;3.80;;;2.80;;
22026;SDS011;11177;50.966;10.070;2023-05-09T00:05:39;4.75;;;2.80;;
22026;SDS011;11177;50.966;10.070;2023-05-09T00:08:07;4.38;;;3.03;;
22026;SDS011;11177;50.966;10.070;2023-05-09T00:10:34;4.28;;;3.10;;
22026;SDS011;11177;50.966;10.070;2023-05-09T00:13:01;4.50;;;2.90;;
22026;SDS011;11177;50.966;10.070;2023-05-09T00:15:28;5.43;;;3.58;;
22026;SDS011;11177;50.966;10.070;2023-05-09T00:17:54;6.20;;;3.22;;
22026;SDS011;11177;50.966;10.070;2023-05-09T00:20:21;5.03;;;3.10;;
22026;SDS011;11177;50.966;10.070;2023-05-09T00:22:48;4.53;;;2.90;;
22026;SDS011;11177;50.966;10.070;2023-05-09T00:25:15;3.40;;;3.10;;
22026;SDS011;11177;50.966;10.070;2023-05-09T00:27:42;4.32;;;3.10;;
22026;SDS011;11177;50.966;10.070;2023-05-09T00:30:09;7.03;;;3.20;;
22026;SDS011;11177;50.966;10.070;2023-05-09T00:32:36;5.70;;;3.70;;
22026;SDS011;11177;50.966;10.070;2023-05-09T00:35:03;3.53;;;3.22;;
22026;SDS011;11177;50.966;10.070;2023-05-09T00:37:30;3.67;;;3.30;;
22026;SDS011;11177;50.966;10.070;2023-05-09T00:39:57;5.40;;;3.55;;
22026;SDS011;11177;50.966;10.070;2023-05-09T00:42:24;3.97;;;3.58;;
22026;SDS011;11177;50.966;10.070;2023-05-09T00:44:50;8.40;;;3.40;;
22026;SDS011;11177;50.966;10.070;2023-05-09T00:47:17;4.60;;;3.13;;
22026;SDS011;11177;50.966;10.070;2023-05-09T00:49:44;3.88;;;3.47;;
22026;SDS011;11177;50.966;10.070;2023-05-09T00:52:11;11.93;;;3.92;;
22026;SDS011;11177;50.966;10.070;2023-05-09T00:54:37;5.57;;;3.60;;
22026;SDS011;11177;50.966;10.070;2023-05-09T00:57:04;6.25;;;3.67;;
22026;SDS011;11177;50.966;10.070;2023-05-09T00:59:31;4.78;;;3.88;;
22026;SDS011;11177;50.966;10.070;2023-05-09T01:01:58;4.78;;;4.28;;
22026;SDS011;11177;50.966;10.070;2023-05-09T01:04:25;8.00;;;3.97;;
22026;SDS011;11177;50.966;10.070;2023-05-09T01:07:29;7.50;;;4.22;;
22026;SDS011;11177;50.966;10.070;2023-05-09T01:09:55;5.95;;;4.00;;
22026;SDS011;11177;50.966;10.070;2023-05-09T01:12:35;6.90;;;3.88;;
22026;SDS011;11177;50.966;10.070;2023-05-09T01:15:15;6.15;;;4.30;;
22026;SDS011;11177;50.966;10.070;2023-05-09T01:17:48;5.22;;;4.25;;
22026;SDS011;11177;50.966;10.070;2023-05-09T01:26:42;6.10;;;4.20;;
22026;SDS011;11177;50.966;10.070;2023-05-09T01:32:02;6.03;;;4.72;;
22026;SDS011;11177;50.966;10.070;2023-05-09T01:34:31;5.40;;;4.38;;
22026;SDS011;11177;50.966;10.070;2023-05-09T01:37:00;7.68;;;4.78;;
22026;SDS011;11177;50.966;10.070;2023-05-09T01:39:29;6.80;;;4.80;;
22026;SDS011;11177;50.966;10.070;2023-05-09T01:41:59;6.55;;;4.97;;
22026;SDS011;11177;50.966;10.070;2023-05-09T01:44:38;10.00;;;4.50;;
22026;SDS011;11177;50.966;10.070;2023-05-09T01:47:06;5.85;;;4.72;;
22026;SDS011;11177;50.966;10.070;2023-05-09T01:49:36;6.78;;;5.10;;
22026;SDS011;11177;50.966;10.070;2023-05-09T01:52:07;5.30;;;4.80;;
22026;SDS011;11177;50.966;10.070;2023-05-09T01:54:35;8.48;;;4.97;;
22026;SDS011;11177;50.966;10.070;2023-05-09T01:57:03;5.10;;;4.50;;
22026;SDS011;11177;50.966;10.070;2023-05-09T01:59:30;6.22;;;4.63;;
22026;SDS011;11177;50.966;10.070;2023-05-09T02:01:58;5.32;;;4.40;;
22026;SDS011;11177;50.966;10.070;2023-05-09T02:04:26;9.90;;;4.90;;
22026;SDS011;11177;50.966;10.070;2023-05-09T02:06:53;6.97;;;4.75;;
22026;SDS011;11177;50.966;10.070;2023-05-09T02:09:21;6.00;;;4.90;;
22026;SDS011;11177;50.966;10.070;2023-05-09T02:11:48;7.28;;;4.80;;
22026;SDS011;11177;50.966;10.070;2023-05-09T02:14:14;7.88;;;4.90;;
22026;SDS011;11177;50.966;10.070;2023-05-09T02:16:41;6.85;;;4.63;;
22026;SDS011;11177;50.966;10.070;2023-05-09T02:19:08;7.97;;;5.18;;
22026;SDS011;11177;50.966;10.070;2023-05-09T02:21:35;6.60;;;4.72;;
22026;SDS011;11177;50.966;10.070;2023-05-09T02:24:02;6.55;;;4.75;;
22026;SDS011;11177;50.966;10.070;2023-05-09T02:26:29;7.03;;;4.68;;
22026;SDS011;11177;50.966;10.070;2023-05-09T02:28:56;6.20;;;5.30;;
22026;SDS011;11177;50.966;10.070;2023-05-09T02:31:24;8.18;;;4.90;;
22026;SDS011;11177;50.966;10.070;2023-05-09T02:33:51;7.93;;;5.60;;
22026;SDS011;11177;50.966;10.070;2023-05-09T02:36:18;6.38;;;4.90;;
22026;SDS011;11177;50.966;10.070;2023-05-09T02:38:46;9.30;;;4.90;;
22026;SDS011;11177;50.966;10.070;2023-05-09T02:41:16;6.45;;;5.35;;
22026;SDS011;11177;50.966;10.070;2023-05-09T02:43:43;5.95;;;4.78;;
22026;SDS011;11177;50.966;10.070;2023-05-09T02:46:10;7.38;;;5.07;;
22026;SDS011;11177;50.966;10.070;2023-05-09T02:48:37;6.93;;;4.63;;
22026;SDS011;11177;50.966;10.070;2023-05-09T02:51:03;6.88;;;4.65;;
22026;SDS011;11177;50.966;10.070;2023-05-09T02:53:30;6.32;;;5.28;;
22026;SDS011;11177;50.966;10.070;2023-05-09T02:55:57;8.75;;;4.97;;
22026;SDS011;11177;50.966;10.070;2023-05-09T02:58:24;5.93;;;4.85;;
22026;SDS011;11177;50.966;10.070;2023-05-09T03:00:50;7.82;;;5.30;;
22026;SDS011;11177;50.966;10.070;2023-05-09T03:03:17;5.75;;;5.03;;
22026;SDS011;11177;50.966;10.070;2023-05-09T03:05:44;7.90;;;5.10;;
22026;SDS011;11177;50.966;10.070;2023-05-09T03:08:11;7.55;;;5.10;;
22026;SDS011;11177;50.966;10.070;2023-05-09T03:10:38;5.85;;;5.15;;
22026;SDS011;11177;50.966;10.070;2023-05-09T03:13:05;5.22;;;4.65;;
22026;SDS011;11177;50.966;10.070;2023-05-09T03:15:32;6.82;;;5.28;;
22026;SDS011;11177;50.966;10.070;2023-05-09T03:17:58;6.80;;;4.97;;
22026;SDS011;11177;50.966;10.070;2023-05-09T03:20:25;8.07;;;5.03;;
22026;SDS011;11177;50.966;10.070;2023-05-09T03:22:52;8.05;;;5.15;;
22026;SDS011;11177;50.966;10.070;2023-05-09T03:25:19;7.90;;;5.28;;
22026;SDS011;11177;50.966;10.070;2023-05-09T03:27:46;6.03;;;5.00;;
22026;SDS011;11177;50.966;10.070;2023-05-09T03:30:13;8.85;;;5.30;;
22026;SDS011;11177;50.966;10.070;2023-05-09T03:32:40;7.68;;;4.88;;
22026;SDS011;11177;50.966;10.070;2023-05-09T03:35:07;6.28;;;5.00;;
22026;SDS011;11177;50.966;10.070;2023-05-09T03:37:34;6.82;;;4.90;;
22026;SDS011;11177;50.966;10.070;2023-05-09T03:40:01;5.32;;;4.78;;
22026;SDS011;11177;50.966;10.070;2023-05-09T03:42:28;9.73;;;5.20;;
22026;SDS011;11177;50.966;10.070;2023-05-09T03:44:54;6.18;;;4.90;;
22026;SDS011;11177;50.966;10.070;2023-05-09T03:47:21;9.65;;;5.20;;
22026;SDS011;11177;50.966;10.070;2023-05-09T03:49:48;6.18;;;5.20;;
22026;SDS011;11177;50.966;10.070;2023-05-09T03:52:14;6.50;;;4.70;;
22026;SDS011;11177;50.966;10.070;2023-05-09T03:54:41;7.78;;;5.45;;
22026;SDS011;11177;50.966;10.070;2023-05-09T03:57:08;6.38;;;5.03;;
22026;SDS011;11177;50.966;10.070;2023-05-09T03:59:35;10.93;;;5.05;;
22026;SDS011;11177;50.966;10.070;2023-05-09T04:02:01;8.35;;;5.00;;
22026;SDS011;11177;50.966;10.070;2023-05-09T04:04:28;10.15;;;5.22;;
22026;SDS011;11177;50.966;10.070;2023-05-09T04:06:55;7.85;;;5.20;;
22026;SDS011;11177;50.966;10.070;2023-05-09T04:09:22;6.05;;;5.05;;
22026;SDS011;11177;50.966;10.070;2023-05-09T04:11:49;9.55;;;5.28;;
22026;SDS011;11177;50.966;10.070;2023-05-09T04:14:16;6.68;;;5.40;;
22026;SDS011;11177;50.966;10.070;2023-05-09T04:16:43;8.20;;;5.43;;
22026;SDS011;11177;50.966;10.070;2023-05-09T04:19:10;10.35;;;6.10;;
22026;SDS011;11177;50.966;10.070;2023-05-09T04:21:37;10.55;;;6.50;;
22026;SDS011;11177;50.966;10.070;2023-05-09T04:24:04;8.32;;;6.18;;
22026;SDS011;11177;50.966;10.070;2023-05-09T04:26:31;12.48;;;6.85;;
22026;SDS011;11177;50.966;10.070;2023-05-09T04:28:58;8.00;;;6.70;;
22026;SDS011;11177;50.966;10.070;2023-05-09T04:31:25;11.10;;;6.53;;
22026;SDS011;11177;50.966;10.070;2023-05-09T04:33:52;12.52;;;7.63;;
22026;SDS011;11177;50.966;10.070;2023-05-09T04:36:18;9.70;;;7.68;;
22026;SDS011;11177;50.966;10.070;2023-05-09T04:38:45;9.75;;;7.00;;
22026;SDS011;11177;50.966;10.070;2023-05-09T04:41:12;8.60;;;6.07;;
22026;SDS011;11177;50.966;10.070;2023-05-09T04:43:39;7.18;;;5.40;;
22026;SDS011;11177;50.966;10.070;2023-05-09T04:46:06;8.10;;;5.97;;
22026;SDS011;11177;50.966;10.070;2023-05-09T04:48:33;8.30;;;5.38;;
22026;SDS011;11177;50.966;10.070;2023-05-09T04:51:01;7.03;;;5.97;;
22026;SDS011;11177;50.966;10.070;2023-05-09T04:53:27;8.25;;;5.47;;
22026;SDS011;11177;50.966;10.070;2023-05-09T04:55:55;9.82;;;5.55;;
22026;SDS011;11177;50.966;10.070;2023-05-09T04:58:21;8.00;;;5.50;;
22026;SDS011;11177;50.966;10.070;2023-05-09T05:00:48;7.45;;;5.78;;
22026;SDS011;11177;50.966;10.070;2023-05-09T05:03:15;9.52;;;5.47;;
22026;SDS011;11177;50.966;10.070;2023-05-09T05:05:43;8.40;;;5.45;;
22026;SDS011;11177;50.966;10.070;2023-05-09T05:08:10;7.75;;;5.47;;
22026;SDS011;11177;50.966;10.070;2023-05-09T05:10:37;11.75;;;5.80;;
22026;SDS011;11177;50.966;10.070;2023-05-09T05:13:04;7.45;;;5.32;;
22026;SDS011;11177;50.966;10.070;2023-05-09T05:15:30;12.73;;;5.78;;
22026;SDS011;11177;50.966;10.070;2023-05-09T05:17:57;6.20;;;5.45;;
22026;SDS011;11177;50.966;10.070;2023-05-09T05:20:24;6.90;;;5.13;;
22026;SDS011;11177;50.966;10.070;2023-05-09T05:22:51;9.73;;;5.55;;
22026;SDS011;11177;50.966;10.070;2023-05-09T05:25:20;5.40;;;4.78;;
22026;SDS011;11177;50.966;10.070;2023-05-09T05:27:47;7.03;;;4.82;;
22026;SDS011;11177;50.966;10.070;2023-05-09T05:30:15;6.00;;;5.00;;
22026;SDS011;11177;50.966;10.070;2023-05-09T05:32:42;7.65;;;4.97;;
22026;SDS011;11177;50.966;10.070;2023-05-09T05:35:09;7.95;;;5.00;;
22026;SDS011;11177;50.966;10.070;2023-05-09T05:37:40;9.10;;;5.20;;
22026;SDS011;11177;50.966;10.070;2023-05-09T05:40:07;7.05;;;4.95;;
22026;SDS011;11177;50.966;10.070;2023-05-09T05:42:34;6.50;;;5.13;;
22026;SDS011;11177;50.966;10.070;2023-05-09T05:45:01;9.00;;;4.70;;
22026;SDS011;11177;50.966;10.070;2023-05-09T05:47:34;8.02;;;5.25;;
22026;SDS011;11177;50.966;10.070;2023-05-09T05:50:03;6.68;;;4.45;;
22026;SDS011;11177;50.966;10.070;2023-05-09T05:52:34;7.45;;;4.78;;
22026;SDS011;11177;50.966;10.070;2023-05-09T05:55:01;6.78;;;4.88;;
22026;SDS011;11177;50.966;10.070;2023-05-09T05:57:28;5.25;;;4.35;;
22026;SDS011;11177;50.966;10.070;2023-05-09T05:59:54;5.32;;;4.45;;
22026;SDS011;11177;50.966;10.070;2023-05-09T06:02:21;7.38;;;4.88;;
22026;SDS011;11177;50.966;10.070;2023-05-09T06:04:48;5.45;;;4.70;;
22026;SDS011;11177;50.966;10.070;2023-05-09T06:07:15;5.40;;;4.70;;
22026;SDS011;11177;50.966;10.070;2023-05-09T06:09:42;6.50;;;4.50;;
22026;SDS011;11177;50.966;10.070;2023-05-09T06:12:09;5.45;;;4.30;;
22026;SDS011;11177;50.966;10.070;2023-05-09T06:14:37;5.85;;;4.50;;
22026;SDS011;11177;50.966;10.070;2023-05-09T06:17:04;4.90;;;4.30;;
22026;SDS011;11177;50.966;10.070;2023-05-09T06:19:31;7.32;;;4.70;;
22026;SDS011;11177;50.966;10.070;2023-05-09T06:21:57;5.10;;;4.50;;
22026;SDS011;11177;50.966;10.070;2023-05-09T06:24:24;5.93;;;4.40;;
22026;SDS011;11177;50.966;10.070;2023-05-09T06:27:01;8.35;;;4.50;;
22026;SDS011;11177;50.966;10.070;2023-05-09T06:29:29;4.95;;;4.45;;
22026;SDS011;11177;50.966;10.070;2023-05-09T06:31:56;5.18;;;4.68;;
22026;SDS011;11177;50.966;10.070;2023-05-09T06:34:23;5.65;;;4.50;;
22026;SDS011;11177;50.966;10.070;2023-05-09T06:36:50;5.50;;;4.50;;
22026;SDS011;11177;50.966;10.070;2023-05-09T06:39:16;4.80;;;4.30;;
22026;SDS011;11177;50.966;10.070;2023-05-09T06:41:43;4.65;;;4.25;;
22026;SDS011;11177;50.966;10.070;2023-05-09T06:44:10;6.55;;;4.65;;
22026;SDS011;11177;50.966;10.070;2023-05-09T06:46:37;8.50;;;4.72;;
22026;SDS011;11177;50.966;10.070;2023-05-09T06:49:04;5.45;;;4.60;;
22026;SDS011;11177;50.966;10.070;2023-05-09T06:51:31;4.93;;;4.22;;
22026;SDS011;11177;50.966;10.070;2023-05-09T06:53:58;5.47;;;4.00;;
22026;SDS011;11177;50.966;10.070;2023-05-09T06:56:26;4.78;;;4.15;;
22026;SDS011;11177;50.966;10.070;2023-05-09T06:58:53;5.00;;;4.20;;
22026;SDS011;11177;50.966;10.070;2023-05-09T07:01:20;4.47;;;3.92;;
22026;SDS011;11177;50.966;10.070;2023-05-09T07:03:46;7.82;;;4.47;;
22026;SDS011;11177;50.966;10.070;2023-05-09T07:06:13;6.65;;;4.28;;
22026;SDS011;11177;50.966;10.070;2023-05-09T07:08:40;6.38;;;4.50;;
22026;SDS011;11177;50.966;10.070;2023-05-09T07:11:07;4.93;;;4.40;;
22026;SDS011;11177;50.966;10.070;2023-05-09T07:13:34;6.25;;;4.40;;
22026;SDS011;11177;50.966;10.070;2023-05-09T07:16:00;5.20;;;4.38;;
22026;SDS011;11177;50.966;10.070;2023-05-09T07:18:27;5.78;;;4.60;;
22026;SDS011;11177;50.966;10.070;2023-05-09T07:20:55;7.15;;;4.70;;
22026;SDS011;11177;50.966;10.070;2023-05-09T07:23:22;5.82;;;4.40;;
22026;SDS011;11177;50.966;10.070;2023-05-09T07:25:48;5.70;;;5.00;;
22026;SDS011;11177;50.966;10.070;2023-05-09T07:28:15;7.90;;;4.95;;
22026;SDS011;11177;50.966;10.070;2023-05-09T07:30:42;5.20;;;4.70;;
22026;SDS011;11177;50.966;10.070;2023-05-09T07:33:09;5.32;;;4.82;;
22026;SDS011;11177;50.966;10.070;2023-05-09T07:35:36;8.30;;;4.82;;
22026;SDS011;11177;50.966;10.070;2023-05-09T07:38:03;5.28;;;4.75;;
22026;SDS011;11177;50.966;10.070;2023-05-09T07:40:32;7.32;;;4.85;;
22026;SDS011;11177;50.966;10.070;2023-05-09T07:43:01;6.13;;;5.43;;
22026;SDS011;11177;50.966;10.070;2023-05-09T07:45:28;6.32;;;5.47;;
22026;SDS011;11177;50.966;10.070;2023-05-09T07:47:55;7.15;;;5.97;;
22026;SDS011;11177;50.966;10.070;2023-05-09T07:50:22;6.20;;;5.60;;
22026;SDS011;11177;50.966;10.070;2023-05-09T07:52:49;6.57;;;5.57;;
22026;SDS011;11177;50.966;10.070;2023-05-09T07:55:16;8.05;;;6.20;;
22026;SDS011;11177;50.966;10.070;2023-05-09T07:57:43;8.57;;;6.15;;
22026;SDS011;11177;50.966;10.070;2023-05-09T08:00:10;7.28;;;6.18;;
22026;SDS011;11177;50.966;10.070;2023-05-09T08:02:38;8.10;;;6.38;;
22026;SDS011;11177;50.966;10.070;2023-05-09T08:05:05;7.75;;;6.15;;
22026;SDS011;11177;50.966;10.070;2023-05-09T08:07:33;7.47;;;5.85;;
22026;SDS011;11177;50.966;10.070;2023-05-09T08:10:01;6.45;;;5.60;;
22026;SDS011;11177;50.966;10.070;2023-05-09T08:12:28;6.57;;;5.88;;
22026;SDS011;11177;50.966;10.070;2023-05-09T08:14:55;8.98;;;6.00;;
22026;SDS011;11177;50.966;10.070;2023-05-09T08:17:22;8.00;;;5.65;;
22026;SDS011;11177;50.966;10.070;2023-05-09T08:19:49;7.13;;;5.53;;
22026;SDS011;11177;50.966;10.070;2023-05-09T08:22:16;7.55;;;5.95;;
22026;SDS011;11177;50.966;10.070;2023-05-09T08:24:44;7.88;;;5.75;;
22026;SDS011;11177;50.966;10.070;2023-05-09T08:27:12;6.72;;;5.93;;
22026;SDS011;11177;50.966;10.070;2023-05-09T08:29:39;6.47;;;5.60;;
22026;SDS011;11177;50.966;10.070;2023-05-09T08:32:06;7.03;;;5.50;;
22026;SDS011;11177;50.966;10.070;2023-05-09T08:34:36;5.82;;;5.32;;
22026;SDS011;11177;50.966;10.070;2023-05-09T08:37:03;7.78;;;5.68;;
22026;SDS011;11177;50.966;10.070;2023-05-09T08:39:30;5.95;;;5.30;;
22026;SDS011;11177;50.966;10.070;2023-05-09T08:42:00;6.03;;;5.45;;
22026;SDS011;11177;50.966;10.070;2023-05-09T08:44:28;6.63;;;5.80;;
22026;SDS011;11177;50.966;10.070;2023-05-09T08:46:57;11.65;;;6.05;;
22026;SDS011;11177;50.966;10.070;2023-05-09T08:49:25;6.88;;;5.75;;
22026;SDS011;11177;50.966;10.070;2023-05-09T08:51:54;8.70;;;6.60;;
22026;SDS011;11177;50.966;10.070;2023-05-09T08:54:21;8.45;;;6.10;;
22026;SDS011;11177;50.966;10.070;2023-05-09T08:56:49;6.93;;;6.20;;
22026;SDS011;11177;50.966;10.070;2023-05-09T08:59:16;10.05;;;6.05;;
22026;SDS011;11177;50.966;10.070;2023-05-09T09:01:44;8.20;;;7.05;;
22026;SDS011;11177;50.966;10.070;2023-05-09T09:04:11;7.60;;;6.80;;
22026;SDS011;11177;50.966;10.070;2023-05-09T09:06:38;8.57;;;6.85;;
22026;SDS011;11177;50.966;10.070;2023-05-09T09:09:06;8.00;;;6.85;;
22026;SDS011;11177;50.966;10.070;2023-05-09T09:11:35;9.00;;;7.28;;
22026;SDS011;11177;50.966;10.070;2023-05-09T09:14:05;8.82;;;6.40;;
22026;SDS011;11177;50.966;10.070;2023-05-09T09:16:39;8.55;;;6.90;;
22026;SDS011;11177;50.966;10.070;2023-05-09T09:19:11;11.32;;;7.10;;
22026;SDS011;11177;50.966;10.070;2023-05-09T09:21:43;7.35;;;6.22;;
22026;SDS011;11177;50.966;10.070;2023-05-09T09:24:13;9.50;;;6.20;;
22026;SDS011;11177;50.966;10.070;2023-05-09T09:26:46;9.60;;;6.68;;
22026;SDS011;11177;50.966;10.070;2023-05-09T09:29:15;7.03;;;6.22;;
22026;SDS011;11177;50.966;10.070;2023-05-09T09:31:43;7.03;;;5.85;;
22026;SDS011;11177;50.966;10.070;2023-05-09T09:34:12;9.23;;;6.28;;
22026;SDS011;11177;50.966;10.070;2023-05-09T09:36:40;7.13;;;6.43;;
22026;SDS011;11177;50.966;10.070;2023-05-09T09:39:07;8.15;;;5.65;;
22026;SDS011;11177;50.966;10.070;2023-05-09T09:41:38;7.45;;;5.90;;
22026;SDS011;11177;50.966;10.070;2023-05-09T09:44:12;7.20;;;5.95;;
22026;SDS011;11177;50.966;10.070;2023-05-09T09:46:50;6.18;;;5.57;;
22026;SDS011;11177;50.966;10.070;2023-05-09T09:49:20;8.40;;;5.43;;
22026;SDS011;11177;50.966;10.070;2023-05-09T09:51:52;6.18;;;5.22;;
22026;SDS011;11177;50.966;10.070;2023-05-09T09:54:26;7.85;;;5.85;;
22026;SDS011;11177;50.966;10.070;2023-05-09T09:56:53;6.47;;;5.78;;
22026;SDS011;11177;50.966;10.070;2023-05-09T09:59:22;7.10;;;5.45;;
22026;SDS011;11177;50.966;10.070;2023-05-09T10:02:03;6.10;;;5.50;;
22026;SDS011;11177;50.966;10.070;2023-05-09T10:04:34;5.80;;;5.30;;
22026;SDS011;11177;50.966;10.070;2023-05-09T10:07:03;8.73;;;5.68;;
22026;SDS011;11177;50.966;10.070;2023-05-09T10:09:34;5.45;;;4.85;;
22026;SDS011;11177;50.966;10.070;2023-05-09T10:12:04;10.15;;;5.43;;
22026;SDS011;11177;50.966;10.070;2023-05-09T10:14:32;5.40;;;4.90;;
22026;SDS011;11177;50.966;10.070;2023-05-09T10:17:01;5.30;;;4.72;;
22026;SDS011;11177;50.966;10.070;2023-05-09T10:19:29;6.65;;;4.97;;
22026;SDS011;11177;50.966;10.070;2023-05-09T10:21:57;5.32;;;4.78;;
22026;SDS011;11177;50.966;10.070;2023-05-09T10:27:30;5.47;;;4.90;;
22026;SDS011;11177;50.966;10.070;2023-05-09T10:30:08;4.95;;;4.50;;
22026;SDS011;11177;50.966;10.070;2023-05-09T10:35:41;7.22;;;4.40;;
22026;SDS011;11177;50.966;10.070;2023-05-09T10:38:10;4.93;;;4.43;;
22026;SDS011;11177;50.966;10.070;2023-05-09T10:40:40;4.95;;;4.50;;
22026;SDS011;11177;50.966;10.070;2023-05-09T10:43:07;4.97;;;4.47;;
22026;SDS011;11177;50.966;10.070;2023-05-09T10:45:34;5.20;;;4.80;;
22026;SDS011;11177;50.966;10.070;2023-05-09T10:48:01;5.72;;;4.82;;
22026;SDS011;11177;50.966;10.070;2023-05-09T10:50:33;4.95;;;4.45;;
22026;SDS011;11177;50.966;10.070;2023-05-09T10:58:33;9.48;;;5.25;;
22026;SDS011;11177;50.966;10.070;2023-05-09T11:01:03;5.55;;;4.57;;
22026;SDS011;11177;50.966;10.070;2023-05-09T11:09:33;4.78;;;4.28;;
22026;SDS011;11177;50.966;10.070;2023-05-09T11:12:09;4.20;;;3.80;;
22026;SDS011;11177;50.966;10.070;2023-05-09T11:14:46;5.88;;;4.38;;
22026;SDS011;11177;50.966;10.070;2023-05-09T11:20:05;6.22;;;4.70;;
22026;SDS011;11177;50.966;10.070;2023-05-09T11:22:43;4.35;;;3.97;;
22026;SDS011;11177;50.966;10.070;2023-05-09T11:25:10;3.95;;;3.63;;
22026;SDS011;11177;50.966;10.070;2023-05-09T11:27:40;3.95;;;3.58;;
22026;SDS011;11177;50.966;10.070;2023-05-09T11:30:12;3.92;;;3.60;;
22026;SDS011;11177;50.966;10.070;2023-05-09T11:32:50;6.03;;;3.55;;
22026;SDS011;11177;50.966;10.070;2023-05-09T11:35:21;5.63;;;3.80;;
22026;SDS011;11177;50.966;10.070;2023-05-09T11:37:49;4.05;;;3.55;;
22026;SDS011;11177;50.966;10.070;2023-05-09T11:40:18;6.10;;;3.60;;
22026;SDS011;11177;50.966;10.070;2023-05-09T11:42:47;4.45;;;3.60;;
22026;SDS011;11177;50.966;10.070;2023-05-09T11:45:16;5.38;;;4.00;;
22026;SDS011;11177;50.966;10.070;2023-05-09T11:47:43;3.92;;;3.63;;
22026;SDS011;11177;50.966;10.070;2023-05-09T11:50:11;4.25;;;3.60;;
22026;SDS011;11177;50.966;10.070;2023-05-09T11:52:39;4.38;;;3.70;;
22026;SDS011;11177;50.966;10.070;2023-05-09T11:55:07;5.88;;;3.55;;
22026;SDS011;11177;50.966;10.070;2023-05-09T11:57:43;4.30;;;3.90;;
22026;SDS011;11177;50.966;10.070;2023-05-09T12:00:11;6.90;;;3.47;;
22026;SDS011;11177;50.966;10.070;2023-05-09T12:02:39;6.43;;;3.85;;
22026;SDS011;11177;50.966;10.070;2023-05-09T12:05:10;3.88;;;3.58;;
22026;SDS011;11177;50.966;10.070;2023-05-09T12:07:39;4.72;;;3.65;;
22026;SDS011;11177;50.966;10.070;2023-05-09T12:10:07;6.05;;;3.70;;
22026;SDS011;11177;50.966;10.070;2023-05-09T12:12:35;5.68;;;3.38;;
22026;SDS011;11177;50.966;10.070;2023-05-09T12:15:03;6.43;;;3.55;;
22026;SDS011;11177;50.966;10.070;2023-05-09T12:17:33;4.15;;;3.28;;
22026;SDS011;11177;50.966;10.070;2023-05-09T12:20:01;5.78;;;3.63;;
22026;SDS011;11177;50.966;10.070;2023-05-09T12:22:31;4.15;;;3.30;;
22026;SDS011;11177;50.966;10.070;2023-05-09T12:24:59;4.03;;;3.40;;
22026;SDS011;11177;50.966;10.070;2023-05-09T12:27:30;4.15;;;3.25;;
22026;SDS011;11177;50.966;10.070;2023-05-09T12:30:02;3.60;;;3.22;;
22026;SDS011;11177;50.966;10.070;2023-05-09T12:32:34;5.18;;;3.40;;
22026;SDS011;11177;50.966;10.070;2023-05-09T12:35:02;3.30;;;3.00;;
22026;SDS011;11177;50.966;10.070;2023-05-09T12:37:29;4.05;;;3.47;;
22026;SDS011;11177;50.966;10.070;2023-05-09T12:40:08;3.70;;;3.15;;
22026;SDS011;11177;50.966;10.070;2023-05-09T12:42:43;6.40;;;3.67;;
22026;SDS011;11177;50.966;10.070;2023-05-09T12:45:12;3.30;;;3.00;;
22026;SDS011;11177;50.966;10.070;2023-05-09T12:47:39;4.47;;;2.80;;
22026;SDS011;11177;50.966;10.070;2023-05-09T12:50:08;5.50;;;3.00;;
22026;SDS011;11177;50.966;10.070;2023-05-09T12:52:38;2.78;;;2.55;;
22026;SDS011;11177;50.966;10.070;2023-05-09T12:55:23;3.38;;;2.88;;
22026;SDS011;11177;50.966;10.070;2023-05-09T12:58:00;3.65;;;2.83;;
22026;SDS011;11177;50.966;10.070;2023-05-09T13:00:40;3.65;;;2.85;;
22026;SDS011;11177;50.966;10.070;2023-05-09T13:03:19;3.20;;;2.90;;
22026;SDS011;11177;50.966;10.070;2023-05-09T13:05:54;3.75;;;2.50;;
22026;SDS011;11177;50.966;10.070;2023-05-09T13:08:22;3.22;;;2.90;;
22026;SDS011;11177;50.966;10.070;2023-05-09T13:10:49;3.40;;;2.80;;
22026;SDS011;11177;50.966;10.070;2023-05-09T13:13:23;4.60;;;3.10;;
22026;SDS011;11177;50.966;10.070;2023-05-09T13:15:53;2.80;;;2.60;;
22026;SDS011;11177;50.966;10.070;2023-05-09T13:18:20;3.05;;;2.47;;
22026;SDS011;11177;50.966;10.070;2023-05-09T13:20:49;2.58;;;2.38;;
22026;SDS011;11177;50.966;10.070;2023-05-09T13:23:17;5.10;;;3.03;;
22026;SDS011;11177;50.966;10.070;2023-05-09T13:25:44;2.72;;;2.42;;
22026;SDS011;11177;50.966;10.070;2023-05-09T13:28:11;3.03;;;2.72;;
22026;SDS011;11177;50.966;10.070;2023-05-09T13:30:38;2.63;;;2.40;;
22026;SDS011;11177;50.966;10.070;2023-05-09T13:33:04;5.43;;;2.50;;
22026;SDS011;11177;50.966;10.070;2023-05-09T13:35:50;2.90;;;2.42;;
22026;SDS011;11177;50.966;10.070;2023-05-09T13:38:17;6.03;;;2.70;;
22026;SDS011;11177;50.966;10.070;2023-05-09T13:40:44;3.25;;;2.47;;
22026;SDS011;11177;50.966;10.070;2023-05-09T13:43:10;3.20;;;2.72;;
22026;SDS011;11177;50.966;10.070;2023-05-09T13:45:37;3.97;;;2.63;;
22026;SDS011;11177;50.966;10.070;2023-05-09T13:48:04;3.30;;;2.25;;
22026;SDS011;11177;50.966;10.070;2023-05-09T13:50:32;4.75;;;2.60;;
22026;SDS011;11177;50.966;10.070;2023-05-09T13:52:59;2.65;;;2.45;;
22026;SDS011;11177;50.966;10.070;2023-05-09T13:55:25;2.70;;;2.50;;
22026;SDS011;11177;50.966;10.070;2023-05-09T13:57:53;4.55;;;2.50;;
22026;SDS011;11177;50.966;10.070;2023-05-09T14:00:20;3.90;;;2.65;;
22026;SDS011;11177;50.966;10.070;2023-05-09T14:02:47;2.70;;;2.50;;
22026;SDS011;11177;50.966;10.070;2023-05-09T14:05:14;3.90;;;2.47;;
22026;SDS011;11177;50.966;10.070;2023-05-09T14:07:42;5.95;;;2.90;;
22026;SDS011;11177;50.966;10.070;2023-05-09T14:10:09;3.20;;;2.70;;
22026;SDS011;11177;50.966;10.070;2023-05-09T14:12:38;3.42;;;2.53;;
22026;SDS011;11177;50.966;10.070;2023-05-09T14:15:06;2.75;;;2.55;;
22026;SDS011;11177;50.966;10.070;2023-05-09T14:17:37;4.07;;;2.50;;
22026;SDS011;11177;50.966;10.070;2023-05-09T14:20:05;4.18;;;3.00;;
22026;SDS011;11177;50.966;10.070;2023-05-09T14:22:33;2.97;;;2.75;;
22026;SDS011;11177;50.966;10.070;2023-05-09T14:25:00;2.78;;;2.58;;
22026;SDS011;11177;50.966;10.070;2023-05-09T14:27:27;2.92;;;2.70;;
22026;SDS011;11177;50.966;10.070;2023-05-09T14:29:53;3.10;;;2.78;;
22026;SDS011;11177;50.966;10.070;2023-05-09T14:32:20;4.18;;;2.78;;
22026;SDS011;11177;50.966;10.070;2023-05-09T14:34:47;5.60;;;2.60;;
22026;SDS011;11177;50.966;10.070;2023-05-09T14:37:17;4.00;;;2.70;;
22026;SDS011;11177;50.966;10.070;2023-05-09T14:39:44;4.40;;;2.63;;
22026;SDS011;11177;50.966;10.070;2023-05-09T14:42:11;5.25;;;2.63;;
22026;SDS011;11177;50.966;10.070;2023-05-09T14:44:39;3.20;;;2.50;;
22026;SDS011;11177;50.966;10.070;2023-05-09T14:47:07;3.60;;;2.70;;
22026;SDS011;11177;50.966;10.070;2023-05-09T14:49:35;2.63;;;2.42;;
22026;SDS011;11177;50.966;10.070;2023-05-09T14:52:02;3.75;;;2.60;;
22026;SDS011;11177;50.966;10.070;2023-05-09T14:54:29;3.78;;;2.55;;
22026;SDS011;11177;50.966;10.070;2023-05-09T14:56:56;2.97;;;2.70;;
22026;SDS011;11177;50.966;10.070;2023-05-09T14:59:24;3.75;;;2.40;;
22026;SDS011;11177;50.966;10.070;2023-05-09T15:01:51;3.00;;;2.70;;
22026;SDS011;11177;50.966;10.070;2023-05-09T15:04:18;3.58;;;2.50;;
22026;SDS011;11177;50.966;10.070;2023-05-09T15:06:45;4.65;;;2.40;;
22026;SDS011;11177;50.966;10.070;2023-05-09T15:09:12;3.25;;;2.30;;